Time;durP1;ratioP1;P1;durP2;ratioP2;P2;SDS_P1;SDS_P2;PMS_P1;PMS_P2;Temp;Humidity;BMP_temperature;BMP_pressure;BME280_temperature;BME280_humidity;BME280_pressure;Samples;Min_cycle;Max_cycle;Signal;HPM_P1;HPM_P2
2023/11/02 02:29:48;;;;;;;4.57;3.25;;;;;;;8.65;82.61;94928.69;6133115;23;20025;-79
2023/11/02 02:32:53;;;;;;;4.75;3.40;;;;;;;8.70;80.33;94915.03;6135382;23;20053;-78
2023/11/02 02:35:30;;;;;;;3.85;3.20;;;;;;;8.68;77.71;94901.47;6109350;23;20045;-88
2023/11/02 02:38:05;;;;;;;3.25;2.92;;;;;;;8.64;79.96;94904.50;6139742;23;20026;-79
2023/11/02 02:40:34;;;;;;;3.00;2.25;;;;;;;8.63;78.66;94897.69;6135539;23;20056;-80
2023/11/02 02:43:04;;;;;;;2.45;2.25;;;;;;;8.59;77.37;94893.94;6134651;23;20050;-78
2023/11/02 02:45:34;;;;;;;2.95;2.60;;;;;;;8.56;77.86;94891.75;6134793;23;20404;-79
2023/11/02 02:48:03;;;;;;;6.05;2.58;;;;;;;8.58;78.07;94878.56;6134283;23;20531;-81
2023/11/02 02:50:35;;;;;;;2.83;1.98;;;;;;;8.60;76.60;94871.34;6133634;23;20018;-84
2023/11/02 02:53:05;;;;;;;3.70;2.05;;;;;;;8.57;75.95;94869.16;6133482;23;20064;-82
2023/11/02 02:55:34;;;;;;;4.03;2.53;;;;;;;8.52;75.47;94869.00;6133434;23;20113;-78
2023/11/02 02:58:05;;;;;;;6.68;2.88;;;;;;;8.44;75.12;94855.25;6133037;23;20026;-80
2023/11/02 03:00:34;;;;;;;5.78;2.67;;;;;;;8.39;75.17;94841.28;6132746;23;20032;-81
2023/11/02 03:03:05;;;;;;;4.95;2.63;;;;;;;8.36;75.26;94841.72;6131761;23;20022;-79
2023/11/02 03:05:37;;;;;;;3.20;2.38;;;;;;;8.34;75.71;94833.31;6133389;23;20032;-77
2023/11/02 03:08:05;;;;;;;3.72;2.40;;;;;;;8.31;75.04;94828.53;6131963;23;20338;-83
2023/11/02 03:10:36;;;;;;;3.05;2.50;;;;;;;8.25;74.89;94825.00;6133396;23;20062;-81
2023/11/02 03:13:06;;;;;;;3.80;2.80;;;;;;;8.19;74.82;94811.03;6135650;23;20026;-85
2023/11/02 03:15:35;;;;;;;4.35;2.67;;;;;;;8.19;76.43;94811.03;6138774;23;20022;-82
2023/11/02 03:18:09;;;;;;;4.93;2.65;;;;;;;8.21;75.52;94800.44;6139568;23;20022;-83
2023/11/02 03:20:39;;;;;;;4.45;2.67;;;;;;;8.22;75.19;94792.44;6139340;23;20026;-87
2023/11/02 03:23:20;;;;;;;2.25;1.98;;;;;;;8.26;76.97;94785.00;6141106;23;20092;-82
2023/11/02 03:25:54;;;;;;;2.47;1.90;;;;;;;8.28;75.52;94787.41;6142548;23;20029;-87
2023/11/02 03:28:32;;;;;;;3.40;2.60;;;;;;;8.29;76.50;94796.78;6159341;23;20053;-83
2023/11/02 03:31:11;;;;;;;3.30;1.98;;;;;;;8.37;77.78;94786.13;6170763;23;20025;-85
2023/11/02 03:33:48;;;;;;;4.40;2.05;;;;;;;8.38;75.85;94780.72;6170107;23;20031;-81
2023/11/02 03:36:21;;;;;;;2.67;2.05;;;;;;;8.44;78.53;94776.53;6169848;23;20021;-85
2023/11/02 03:39:04;;;;;;;2.70;2.17;;;;;;;8.49;76.40;94773.28;6168679;23;20021;-85
2023/11/02 03:41:50;;;;;;;3.45;2.22;;;;;;;8.53;75.51;94753.66;6168793;23;20021;-88
2023/11/02 03:44:25;;;;;;;2.33;2.13;;;;;;;8.58;78.86;94761.59;6168519;23;20045;-85
2023/11/02 03:47:03;;;;;;;2.67;1.90;;;;;;;8.62;76.32;94727.19;6169482;23;20077;-82
2023/11/02 03:49:36;;;;;;;3.30;2.13;;;;;;;8.61;76.18;94745.56;6169211;23;20044;-80
2023/11/02 03:52:16;;;;;;;2.17;1.98;;;;;;;8.63;77.68;94738.34;6169359;23;20029;-84
2023/11/02 03:54:55;;;;;;;10.85;2.67;;;;;;;8.66;76.49;94724.94;6168456;23;20055;-80
2023/11/02 03:57:30;;;;;;;2.83;1.73;;;;;;;8.69;75.86;94711.50;6167251;23;20108;-79
2023/11/02 04:00:09;;;;;;;2.22;1.83;;;;;;;8.70;74.94;94726.09;6167896;23;20026;-81
2023/11/02 04:02:44;;;;;;;2.63;2.08;;;;;;;8.75;78.09;94730.66;6168256;23;20049;-83
2023/11/02 04:05:14;;;;;;;2.05;1.80;;;;;;;8.80;77.96;94721.19;6168432;23;20100;-80
2023/11/02 04:07:57;;;;;;;3.90;2.00;;;;;;;8.92;82.01;94730.84;6167547;23;20022;-84
2023/11/02 04:10:26;;;;;;;;;;;;;;;8.96;80.41;94725.00;6169382;23;20060;-80
2023/11/02 04:13:04;;;;;;;3.65;1.98;;;;;;;8.98;80.36;94719.59;6168444;23;19920;-82
2023/11/02 04:15:32;;;;;;;3.30;2.00;;;;;;;9.03;79.65;94710.13;6167351;23;20041;-81
2023/11/02 04:18:00;;;;;;;3.38;2.33;;;;;;;9.07;80.32;94692.28;6169313;23;20025;-81
2023/11/02 04:20:28;;;;;;;2.83;1.70;;;;;;;9.07;78.62;94690.50;6167615;23;20017;-84
2023/11/02 04:22:58;;;;;;;2.90;1.80;;;;;;;9.08;78.67;94686.84;6166997;23;20028;-81
2023/11/02 04:25:25;;;;;;;1.90;1.75;;;;;;;9.11;76.59;94690.03;6165164;23;20106;-78
2023/11/02 04:27:53;;;;;;;3.55;2.25;;;;;;;9.09;75.38;94666.84;6165255;23;20053;-78
2023/11/02 04:30:21;;;;;;;2.53;1.70;;;;;;;9.08;74.48;94660.84;6165054;23;20029;-82
2023/11/02 04:32:49;;;;;;;2.17;1.95;;;;;;;9.11;76.67;94656.22;6166381;23;20037;-84
2023/11/02 04:35:17;;;;;;;1.90;1.73;;;;;;;9.14;75.43;94647.97;6168251;23;20021;-82
2023/11/02 04:37:44;;;;;;;1.92;1.65;;;;;;;9.15;75.71;94629.56;6165034;23;20051;-84
2023/11/02 04:40:14;;;;;;;1.70;1.60;;;;;;;9.15;73.73;94610.56;6165222;23;20476;-78
2023/11/02 04:42:41;;;;;;;1.95;1.67;;;;;;;9.08;72.95;94595.03;6165276;23;20028;-81
2023/11/02 04:45:10;;;;;;;2.03;1.60;;;;;;;9.02;74.56;94616.72;6165317;23;20025;-81
2023/11/02 04:47:37;;;;;;;2.15;1.55;;;;;;;8.97;73.43;94604.38;6164600;23;20073;-82
2023/11/02 04:50:06;;;;;;;4.47;1.40;;;;;;;8.99;75.97;94615.38;6169825;23;20021;-86
2023/11/02 04:52:36;;;;;;;2.55;1.52;;;;;;;9.02;75.07;94596.72;6170939;23;20052;-81
2023/11/02 04:55:05;;;;;;;2.55;1.27;;;;;;;9.02;73.54;94604.50;6171499;23;20026;-85
2023/11/02 04:57:35;;;;;;;1.73;1.13;;;;;;;9.02;72.86;94596.72;6171504;23;20045;-84
2023/11/02 05:00:03;;;;;;;1.65;1.30;;;;;;;9.00;74.09;94609.13;6173113;23;20033;-80
2023/11/02 05:02:31;;;;;;;1.60;1.30;;;;;;;8.97;73.29;94598.41;6171717;23;20347;-87
2023/11/02 05:04:59;;;;;;;2.40;2.20;;;;;;;8.99;75.14;94581.56;6172317;23;20061;-82
2023/11/02 05:07:27;;;;;;;1.30;1.20;;;;;;;9.00;73.73;94577.94;6172015;23;20053;-83
2023/11/02 05:09:55;;;;;;;1.40;1.30;;;;;;;8.99;74.37;94562.56;6171941;23;20037;-83
2023/11/02 05:12:22;;;;;;;5.63;1.35;;;;;;;8.98;73.97;94566.94;6171067;23;20045;-84
2023/11/02 05:14:51;;;;;;;2.35;1.25;;;;;;;8.96;73.09;94550.78;6170247;23;20081;-85
2023/11/02 05:17:19;;;;;;;1.70;1.50;;;;;;;8.98;73.56;94542.75;6171239;23;20025;-82
2023/11/02 05:19:46;;;;;;;2.10;1.50;;;;;;;8.96;72.35;94527.38;6170811;23;20060;-82
2023/11/02 05:22:14;;;;;;;2.22;1.63;;;;;;;8.95;72.57;94510.19;6170438;23;20021;-81
2023/11/02 05:24:41;;;;;;;2.47;1.55;;;;;;;8.96;72.84;94509.19;6170152;23;20036;-80
2023/11/02 05:27:09;;;;;;;3.50;1.55;;;;;;;8.98;73.73;94501.16;6169326;23;20026;-81
2023/11/02 05:29:37;;;;;;;2.45;1.50;;;;;;;8.97;73.22;94483.97;6169457;23;20021;-81
2023/11/02 05:32:06;;;;;;;2.95;1.15;;;;;;;8.96;72.08;94477.97;6168755;23;20035;-82
2023/11/02 05:34:33;;;;;;;2.45;1.33;;;;;;;8.95;72.73;94476.41;6168112;23;20025;-81
2023/11/02 05:37:01;;;;;;;1.67;1.10;;;;;;;8.98;73.87;94480.34;6168035;23;20523;-79
2023/11/02 05:39:29;;;;;;;1.95;1.23;;;;;;;8.99;74.38;94490.53;6168736;23;20057;-82
2023/11/02 05:41:56;;;;;;;2.55;1.50;;;;;;;9.02;73.94;94497.88;6168506;23;20467;-79
2023/11/02 05:44:24;;;;;;;3.85;1.50;;;;;;;9.02;73.43;94492.69;6167709;23;20072;-81
2023/11/02 05:46:52;;;;;;;2.95;0.95;;;;;;;9.01;72.24;94493.72;6169294;23;20363;-79
2023/11/02 05:49:21;;;;;;;1.77;1.27;;;;;;;9.02;73.67;94487.47;6170327;23;20080;-80
2023/11/02 05:51:49;;;;;;;1.60;1.50;;;;;;;9.03;72.91;94491.69;6168831;23;20032;-79
2023/11/02 05:54:16;;;;;;;1.02;0.85;;;;;;;9.03;72.56;94476.09;6168181;23;20028;-79
2023/11/02 05:56:44;;;;;;;4.90;1.20;;;;;;;9.06;74.16;94460.03;6168474;23;20047;-82
2023/11/02 05:59:11;;;;;;;1.50;0.82;;;;;;;9.04;72.29;94430.84;6172434;23;20025;-79
2023/11/02 06:01:40;;;;;;;4.13;0.95;;;;;;;8.98;71.14;94391.94;6179607;23;20032;-81
2023/11/02 06:04:08;;;;;;;2.67;1.00;;;;;;;8.98;72.88;94408.34;6168087;23;20021;-84
2023/11/02 06:06:37;;;;;;;1.92;0.80;;;;;;;9.00;71.97;94432.31;6159943;23;20029;-83
2023/11/02 06:09:05;;;;;;;1.92;1.00;;;;;;;9.02;71.35;94406.09;6163496;23;20076;-80
2023/11/02 06:11:33;;;;;;;1.80;1.35;;;;;;;9.05;72.48;94403.03;6164818;23;20025;-81
2023/11/02 06:14:02;;;;;;;3.33;1.20;;;;;;;9.08;73.58;94413.78;6162119;23;20017;-83
2023/11/02 06:16:30;;;;;;;1.50;1.05;;;;;;;9.13;73.10;94430.50;6166098;23;20049;-81
2023/11/02 06:18:57;;;;;;;2.30;1.48;;;;;;;9.17;74.00;94400.44;6164837;23;20053;-80
2023/11/02 06:21:25;;;;;;;0.85;0.80;;;;;;;9.21;72.44;94404.16;6165169;23;20021;-80
2023/11/02 06:23:54;;;;;;;1.17;0.80;;;;;;;9.22;72.45;94400.53;6162903;23;20072;-83
2023/11/02 06:26:22;;;;;;;1.15;0.90;;;;;;;9.25;73.78;94397.50;6165273;23;20019;-85
2023/11/02 06:28:49;;;;;;;1.30;1.13;;;;;;;9.29;73.85;94383.00;6164598;23;20037;-86
2023/11/02 06:31:17;;;;;;;1.48;1.10;;;;;;;9.30;72.82;94384.59;6167090;23;20025;-80
2023/11/02 06:33:44;;;;;;;0.73;0.63;;;;;;;9.34;73.87;94383.13;6166432;23;20017;-83
2023/11/02 06:36:12;;;;;;;1.58;1.13;;;;;;;9.37;72.91;94358.44;6165702;23;20056;-83
2023/11/02 06:38:40;;;;;;;1.52;0.60;;;;;;;9.34;71.02;94338.91;6163654;23;20025;-86
2023/11/02 06:41:09;;;;;;;1.25;1.02;;;;;;;9.35;70.35;94340.47;6163220;23;20105;-85
2023/11/02 06:43:36;;;;;;;0.90;0.70;;;;;;;9.37;71.63;94342.84;6163230;23;20510;-82
2023/11/02 06:46:04;;;;;;;2.17;0.93;;;;;;;9.39;71.21;94352.00;6163598;23;20021;-87
2023/11/02 06:48:33;;;;;;;3.50;1.08;;;;;;;9.41;71.93;94349.97;6163973;23;20081;-84
2023/11/02 06:51:00;;;;;;;0.95;0.68;;;;;;;9.44;71.44;94346.09;6163187;23;20044;-80
2023/11/02 06:53:28;;;;;;;0.82;0.50;;;;;;;9.46;71.21;94357.84;6165009;23;20045;-78
2023/11/02 06:55:56;;;;;;;2.08;0.60;;;;;;;9.51;69.47;94392.81;6163676;23;20121;-83
2023/11/02 06:58:25;;;;;;;2.50;0.80;;;;;;;9.56;69.91;94411.16;6162744;23;20026;-83
2023/11/02 07:00:56;;;;;;;1.35;0.73;;;;;;;9.62;70.26;94413.63;6165708;23;20048;-83
2023/11/02 07:03:24;;;;;;;1.33;0.85;;;;;;;9.65;71.15;94417.59;6166145;23;20021;-86
2023/11/02 07:05:52;;;;;;;1.75;1.05;;;;;;;9.64;70.18;94429.00;6168761;23;20056;-80
2023/11/02 07:08:19;;;;;;;0.90;0.75;;;;;;;9.64;70.62;94450.66;6170285;23;20049;-79
2023/11/02 07:10:47;;;;;;;1.20;0.88;;;;;;;9.65;70.02;94438.41;6169995;23;20029;-79
2023/11/02 07:13:15;;;;;;;1.77;1.05;;;;;;;9.65;70.78;94474.84;6169873;23;20044;-79
2023/11/02 07:15:45;;;;;;;1.42;0.95;;;;;;;9.67;69.98;94473.59;6168927;23;20083;-78
2023/11/02 07:18:13;;;;;;;2.95;0.93;;;;;;;9.67;69.69;94510.06;6168238;23;20374;-80
2023/11/02 07:20:41;;;;;;;1.10;1.00;;;;;;;9.73;73.14;94528.38;6167980;23;20030;-81
2023/11/02 07:23:09;;;;;;;2.85;0.68;;;;;;;9.80;72.65;94529.06;6168843;23;20022;-80
2023/11/02 07:25:40;;;;;;;1.80;1.05;;;;;;;9.80;71.25;94506.44;6167776;23;20333;-78
2023/11/02 07:28:08;;;;;;;10.40;1.20;;;;;;;9.79;70.88;94507.44;6168364;23;20025;-81
2023/11/02 07:30:36;;;;;;;0.85;0.70;;;;;;;9.79;71.36;94515.25;6166372;23;20018;-80
2023/11/02 07:33:05;;;;;;;2.17;1.17;;;;;;;9.79;70.68;94486.59;6165899;23;20025;-80
2023/11/02 07:35:33;;;;;;;1.90;1.10;;;;;;;9.81;70.79;94479.34;6165906;23;20036;-80
2023/11/02 07:38:01;;;;;;;1.02;0.93;;;;;;;9.83;71.16;94485.13;6166653;23;20029;-81
2023/11/02 07:40:28;;;;;;;4.78;1.23;;;;;;;9.87;71.41;94488.06;6165836;23;20052;-79
2023/11/02 07:42:56;;;;;;;2.83;1.40;;;;;;;9.90;71.38;94480.59;6165105;23;20022;-80
2023/11/02 07:45:24;;;;;;;2.90;1.17;;;;;;;9.92;70.80;94484.78;6166097;23;20028;-78
2023/11/02 07:47:52;;;;;;;4.75;2.03;;;;;;;9.88;70.93;94484.44;6164071;23;20036;-79
2023/11/02 07:50:21;;;;;;;2.15;1.10;;;;;;;9.84;71.43;94473.72;6163849;23;20021;-79
2023/11/02 07:52:48;;;;;;;1.08;0.98;;;;;;;9.84;71.61;94455.47;6163901;23;20041;-85
2023/11/02 07:55:16;;;;;;;3.90;1.20;;;;;;;9.84;73.57;94441.69;6164492;23;20053;-84
2023/11/02 07:57:44;;;;;;;1.30;1.15;;;;;;;9.86;75.38;94450.84;6166114;23;20025;-83
2023/11/02 08:00:15;;;;;;;1.30;1.10;;;;;;;9.88;75.11;94466.22;6167072;23;20031;-84
2023/11/02 08:02:42;;;;;;;1.77;1.35;;;;;;;9.82;73.49;94452.31;6167070;23;20028;-81
2023/11/02 08:05:10;;;;;;;2.92;1.88;;;;;;;9.73;73.28;94448.47;6166328;23;20041;-81
2023/11/02 08:07:39;;;;;;;4.57;1.25;;;;;;;9.69;73.49;94452.56;6167425;23;20025;-86
2023/11/02 08:10:09;;;;;;;2.35;1.63;;;;;;;9.72;75.65;94454.69;6166553;23;20025;-84
2023/11/02 08:12:36;;;;;;;1.80;1.00;;;;;;;9.74;74.38;94437.03;6165845;23;20026;-79
2023/11/02 08:15:04;;;;;;;2.33;1.15;;;;;;;9.73;73.64;94437.25;6165769;23;20024;-78
2023/11/02 08:17:32;;;;;;;2.05;1.40;;;;;;;9.72;73.50;94425.28;6165415;23;20022;-80
2023/11/02 08:20:00;;;;;;;1.90;1.10;;;;;;;9.73;73.14;94414.63;6167630;23;20021;-81
2023/11/02 08:22:28;;;;;;;1.60;0.90;;;;;;;9.71;73.01;94414.06;6167855;23;20069;-81
2023/11/02 08:24:57;;;;;;;2.75;0.80;;;;;;;9.75;75.06;94406.56;6167293;23;20021;-86
2023/11/02 08:27:28;;;;;;;1.40;1.00;;;;;;;9.78;73.86;94417.34;6161471;23;20022;-80
2023/11/02 08:29:56;;;;;;;3.22;1.05;;;;;;;9.76;73.12;94403.75;6111510;23;20054;-80
2023/11/02 08:32:24;;;;;;;1.67;0.93;;;;;;;9.73;72.77;94401.63;6117308;23;20029;-80
2023/11/02 08:34:51;;;;;;;2.30;1.40;;;;;;;9.66;72.99;94398.34;6118005;23;20018;-80
2023/11/02 08:37:19;;;;;;;2.15;1.10;;;;;;;9.64;73.65;94400.38;6111572;23;20026;-80
2023/11/02 08:39:47;;;;;;;3.40;1.35;;;;;;;9.62;73.85;94392.00;6110652;23;20271;-80
2023/11/02 08:42:16;;;;;;;3.42;2.05;;;;;;;9.62;73.96;94386.78;6114313;23;20088;-79
2023/11/02 08:44:44;;;;;;;2.33;1.88;;;;;;;9.63;73.82;94396.19;6119922;23;20026;-80
2023/11/02 08:47:13;;;;;;;3.40;1.95;;;;;;;9.62;74.14;94381.59;6108009;23;20067;-80
2023/11/02 08:49:43;;;;;;;3.45;2.00;;;;;;;9.60;73.94;94368.00;6103835;23;20022;-80
2023/11/02 08:52:14;;;;;;;6.85;2.55;;;;;;;9.60;73.89;94363.63;6109755;23;20023;-80
2023/11/02 08:54:42;;;;;;;4.45;2.58;;;;;;;9.62;74.26;94356.38;6119650;23;20029;-80
2023/11/02 08:57:10;;;;;;;3.72;1.90;;;;;;;9.63;74.12;94351.94;6117327;23;20037;-80
2023/11/02 08:59:41;;;;;;;4.13;2.10;;;;;;;9.65;74.72;94358.50;6120631;23;20018;-80
2023/11/02 09:02:11;;;;;;;4.10;1.60;;;;;;;9.66;74.27;94351.47;6112376;23;20457;-79
2023/11/02 09:04:39;;;;;;;2.53;1.70;;;;;;;9.62;75.00;94360.75;6101930;23;20049;-79
2023/11/02 09:07:07;;;;;;;4.03;1.80;;;;;;;9.62;75.33;94369.38;6115602;23;20024;-79
2023/11/02 09:09:35;;;;;;;2.22;1.60;;;;;;;9.61;75.65;94362.59;6119022;23;20025;-80
2023/11/02 09:12:03;;;;;;;1.75;1.00;;;;;;;9.65;76.46;94360.31;6122598;23;20070;-78
2023/11/02 09:14:31;;;;;;;3.60;1.42;;;;;;;9.68;76.86;94341.63;6121075;23;20026;-80
2023/11/02 09:17:01;;;;;;;4.35;2.88;;;;;;;9.70;77.86;94336.97;6112800;23;20023;-80
2023/11/02 09:19:29;;;;;;;3.08;2.25;;;;;;;9.72;76.40;94339.38;6109549;23;20022;-80
2023/11/02 09:21:57;;;;;;;5.18;1.58;;;;;;;9.68;75.76;94332.00;6114868;23;20026;-80
2023/11/02 09:24:24;;;;;;;3.28;1.80;;;;;;;9.67;75.55;94332.25;6123638;23;20061;-79
2023/11/02 09:26:52;;;;;;;4.00;2.20;;;;;;;9.62;75.55;94335.53;6125110;23;20018;-79
2023/11/02 09:29:20;;;;;;;2.95;1.40;;;;;;;9.64;77.55;94336.09;6123765;23;20072;-80
2023/11/02 09:31:48;;;;;;;2.88;1.85;;;;;;;9.69;78.70;94330.22;6116131;23;20022;-80
2023/11/02 09:34:30;;;;;;;3.33;1.77;;;;;;;9.76;79.24;94324.88;6115665;23;20022;-80
2023/11/02 09:37:00;;;;;;;3.30;1.77;;;;;;;9.81;78.94;94317.91;6114910;23;20057;-80
2023/11/02 09:39:30;;;;;;;2.92;2.30;;;;;;;9.80;77.34;94299.94;6113017;23;20026;-80
2023/11/02 09:41:58;;;;;;;3.30;2.50;;;;;;;9.82;77.15;94300.50;6122268;23;20042;-80
2023/11/02 09:44:26;;;;;;;3.35;2.00;;;;;;;9.85;76.41;94285.19;6118649;23;20018;-80
2023/11/02 09:46:55;;;;;;;2.30;1.90;;;;;;;9.86;76.76;94288.56;6116166;23;20022;-79
2023/11/02 09:49:23;;;;;;;2.10;1.52;;;;;;;9.87;76.01;94274.53;6119867;23;20022;-81
2023/11/02 09:51:54;;;;;;;1.65;1.35;;;;;;;9.88;75.19;94255.28;6116345;23;20014;-80
2023/11/02 09:54:22;;;;;;;2.65;1.33;;;;;;;9.88;75.09;94253.50;6119200;23;20022;-80
2023/11/02 09:57:09;;;;;;;1.05;0.85;;;;;;;9.89;74.78;94246.47;6114304;23;20097;-80
2023/11/02 09:59:42;;;;;;;1.33;1.23;;;;;;;9.93;74.91;94242.38;6123790;23;20003;-80
2023/11/02 10:02:13;;;;;;;2.78;1.25;;;;;;;9.99;74.80;94240.63;6124911;23;20032;-80
2023/11/02 10:04:43;;;;;;;1.88;1.08;;;;;;;10.05;74.81;94239.69;6139359;23;20029;-80
2023/11/02 10:07:13;;;;;;;1.90;0.80;;;;;;;10.13;74.77;94241.91;6151395;23;20022;-80
2023/11/02 10:09:42;;;;;;;2.13;1.15;;;;;;;10.18;73.99;94244.59;6123300;23;20018;-80
2023/11/02 10:12:12;;;;;;;2.20;1.05;;;;;;;10.23;74.60;94259.50;6125231;23;20500;-81
2023/11/02 10:14:40;;;;;;;5.15;1.92;;;;;;;10.29;76.99;94266.41;6125778;23;20029;-80
2023/11/02 10:17:11;;;;;;;2.35;1.70;;;;;;;10.38;78.96;94279.81;6125676;23;20022;-81
2023/11/02 10:19:39;;;;;;;1.70;1.15;;;;;;;10.40;77.48;94285.59;6124447;23;20014;-80
2023/11/02 10:22:07;;;;;;;4.78;1.98;;;;;;;10.43;77.15;94329.41;6117262;23;20053;-79
2023/11/02 10:24:37;;;;;;;5.03;1.65;;;;;;;10.43;77.47;94345.06;6120436;23;20022;-80
2023/11/02 10:27:07;;;;;;;2.78;1.45;;;;;;;10.42;76.50;94343.50;6125223;23;20023;-82
2023/11/02 10:40:24;;;;;;;2.87;1.30;;;;;;;10.53;80.25;94347.84;6150496;23;20259;-81
2023/11/02 10:45:27;;;;;;;5.80;2.78;;;;;;;10.50;78.21;94340.50;6148786;23;20022;-81
2023/11/02 10:59:28;;;;;;;2.40;1.92;;;;;;;10.33;77.50;94347.50;6151717;23;20021;-81
2023/11/02 11:01:57;;;;;;;3.40;1.90;;;;;;;10.28;77.90;94350.78;6151388;23;20022;-80
2023/11/02 11:04:29;;;;;;;1.67;1.58;;;;;;;10.29;78.79;94340.16;6154082;23;20034;-81
2023/11/02 11:07:03;;;;;;;4.25;2.00;;;;;;;10.34;78.61;94338.66;6153884;23;20074;-81
2023/11/02 11:09:33;;;;;;;8.05;2.30;;;;;;;10.36;78.42;94345.22;6149585;23;20013;-80
2023/11/02 11:12:02;;;;;;;2.20;1.63;;;;;;;10.39;78.49;94333.53;6147699;23;20021;-80
2023/11/02 11:14:32;;;;;;;2.33;1.50;;;;;;;10.40;78.52;94335.13;6151125;23;20006;-80
2023/11/02 11:17:02;;;;;;;4.57;1.70;;;;;;;10.42;78.53;94322.63;6154297;23;20014;-80
2023/11/02 11:19:32;;;;;;;1.83;1.70;;;;;;;10.43;78.84;94314.59;6151660;23;20017;-81
2023/11/02 11:22:06;;;;;;;2.45;1.70;;;;;;;10.47;78.68;94315.69;6154412;23;20077;-80
2023/11/02 11:24:39;;;;;;;2.22;1.88;;;;;;;10.49;78.69;94312.84;6153005;23;20025;-81
2023/11/02 11:27:08;;;;;;;1.85;1.48;;;;;;;10.53;79.07;94313.94;6141835;23;20017;-80
2023/11/02 11:29:40;;;;;;;4.30;1.55;;;;;;;10.55;79.08;94309.28;6145522;23;20009;-80
2023/11/02 11:32:09;;;;;;;;;;;;;;;10.59;79.08;94320.81;6148411;23;20014;-80
2023/11/02 11:35:26;;;;;;;1.48;1.02;;;;;;;10.62;80.11;94316.94;6140481;23;19958;-82
2023/11/02 11:38:00;;;;;;;1.52;0.88;;;;;;;10.66;79.22;94315.44;6154248;23;20001;-81
2023/11/02 15:23:44;;;;;;;2.33;2.10;;;;;;;10.33;81.85;94084.34;6148325;23;20036;31
2023/11/02 17:28:24;;;;;;;3.08;2.60;;;;;;;10.01;79.37;93959.91;6317747;22;20483;-79
2023/11/02 17:31:00;;;;;;;3.63;2.47;;;;;;;10.03;79.24;93965.66;6328021;22;20041;-80
2023/11/02 17:33:31;;;;;;;2.55;2.35;;;;;;;10.03;78.99;93976.06;6328768;22;20023;-81
2023/11/02 17:36:10;;;;;;;4.15;2.67;;;;;;;10.04;80.33;93977.66;6329244;22;20337;-80
2023/11/02 17:38:41;;;;;;;2.65;2.13;;;;;;;10.08;81.17;93989.19;6321301;22;20016;-82
2023/11/02 17:44:27;;;;;;;8.13;4.90;;;;;;;10.07;80.81;93971.97;6316424;22;20031;-82
2023/11/02 17:46:56;;;;;;;8.68;4.97;;;;;;;10.05;81.34;93964.38;6312427;22;20027;-82
2023/11/02 17:56:51;;;;;;;3.10;2.80;;;;;;;10.03;79.94;93981.28;6315262;22;20472;-82
2023/11/02 17:59:20;;;;;;;5.03;3.00;;;;;;;10.02;79.88;93974.50;6309260;22;20045;-82
2023/11/02 18:08:09;;;;;;;3.05;2.65;;;;;;;10.02;81.27;93974.50;6309527;22;20035;-82
2023/11/02 18:11:14;;;;;;;3.42;3.13;;;;;;;10.05;81.07;93979.22;6314349;22;20015;-82
2023/11/02 18:23:51;;;;;;;4.75;3.63;;;;;;;10.04;82.05;93962.03;6247776;23;20354;-82
2023/11/02 18:26:20;;;;;;;8.13;6.28;;;;;;;10.05;81.42;93980.00;6247775;23;20460;-82
2023/11/02 18:29:17;;;;;;;11.80;8.23;;;;;;;10.05;83.56;93985.22;6255487;23;20050;-82
2023/11/02 18:38:15;;;;;;;4.40;3.35;;;;;;;10.00;81.12;93953.13;6187630;23;20072;-82
2023/11/02 18:45:20;;;;;;;3.75;3.08;;;;;;;9.94;79.57;93972.31;6135378;23;20436;-83
2023/11/02 18:48:00;;;;;;;4.75;3.78;;;;;;;9.93;81.26;93981.97;6143949;23;20039;-83
2023/11/02 18:50:40;;;;;;;3.83;3.40;;;;;;;9.96;82.31;93975.47;6191237;23;20029;-82
2023/11/02 18:53:36;;;;;;;3.92;3.38;;;;;;;9.98;82.94;93979.41;6191046;23;20071;-82
2023/11/02 18:56:15;;;;;;;4.93;3.90;;;;;;;9.96;81.37;93975.47;6117312;23;20102;-83
2023/11/02 18:58:46;;;;;;;4.22;3.83;;;;;;;9.94;81.91;93983.53;6190350;23;20029;-82
2023/11/02 19:01:21;;;;;;;4.15;3.72;;;;;;;9.94;81.91;93987.94;6191439;23;20017;-83
2023/11/02 19:03:50;;;;;;;4.57;4.18;;;;;;;9.93;81.43;93987.16;6233481;23;20027;-82
2023/11/02 19:06:20;;;;;;;4.30;3.90;;;;;;;9.96;82.03;93988.50;6255252;23;20012;-83
2023/11/02 19:08:51;;;;;;;4.38;3.75;;;;;;;9.98;82.14;93991.66;6221507;23;20103;-82
2023/11/02 19:11:21;;;;;;;6.63;4.22;;;;;;;9.99;81.90;93995.81;6220780;23;20095;-82
2023/11/02 19:13:50;;;;;;;28.00;19.02;;;;;;;10.00;82.33;93995.59;6224988;23;20020;-82
2023/11/02 19:16:21;;;;;;;22.25;16.48;;;;;;;10.05;82.83;93989.66;6223196;23;20024;-82
2023/11/02 19:18:52;;;;;;;17.15;12.05;;;;;;;10.07;82.38;93967.53;6220084;23;20024;-82
2023/11/02 19:21:21;;;;;;;7.57;5.28;;;;;;;10.08;82.46;93979.53;6218918;23;20037;-82
2023/11/02 19:23:50;;;;;;;5.20;4.70;;;;;;;10.10;82.51;93981.88;6249813;23;20383;-82
2023/11/02 19:26:19;;;;;;;4.88;4.20;;;;;;;10.13;83.21;93991.84;6248463;23;20024;-82
2023/11/02 19:28:49;;;;;;;3.97;3.58;;;;;;;10.13;83.18;93994.44;6249807;23;20023;-82
2023/11/02 19:31:22;;;;;;;4.03;3.60;;;;;;;10.15;82.81;93995.00;6249579;23;20454;-82
2023/11/02 19:33:53;;;;;;;3.97;3.60;;;;;;;10.15;82.67;94015.81;6250091;23;20454;-82
2023/11/02 19:36:22;;;;;;;5.20;3.95;;;;;;;10.17;82.67;94024.19;6249259;23;20013;-82
2023/11/02 19:38:52;;;;;;;4.68;3.83;;;;;;;10.16;82.82;94017.38;6248377;23;20023;-82
2023/11/02 19:41:21;;;;;;;4.03;3.15;;;;;;;10.12;81.45;94011.09;6249284;23;20020;-82
2023/11/02 19:43:50;;;;;;;3.67;3.00;;;;;;;10.08;80.10;94023.81;6248460;23;20019;-82
2023/11/02 19:46:21;;;;;;;3.35;3.05;;;;;;;10.07;80.89;94035.25;6249809;23;20069;-82
2023/11/02 19:48:50;;;;;;;3.60;2.83;;;;;;;10.03;80.02;94023.75;6248634;23;20462;-82
2023/11/02 19:51:19;;;;;;;3.25;2.95;;;;;;;9.99;80.33;94004.44;6249765;23;20059;-82
2023/11/02 19:53:48;;;;;;;4.10;3.05;;;;;;;9.95;80.18;93994.72;6252988;23;20020;-82
2023/11/02 19:56:16;;;;;;;4.38;3.42;;;;;;;9.96;81.33;94017.16;6249918;23;20012;-82
2023/11/02 19:58:45;;;;;;;4.32;3.63;;;;;;;9.97;80.33;94008.28;6248761;23;20420;-82
2023/11/02 20:01:13;;;;;;;3.53;3.08;;;;;;;9.95;79.74;93992.13;6251177;23;20461;-82
2023/11/02 20:14:10;;;;;;;3.42;3.13;;;;;;;9.94;81.72;93999.16;6302877;22;20016;-80
2023/11/02 20:17:02;;;;;;;4.90;3.42;;;;;;;9.93;82.40;94004.59;6298020;22;20019;-82
2023/11/02 20:20:03;;;;;;;4.20;3.53;;;;;;;9.94;82.58;94008.78;6268268;22;20020;-80
2023/11/02 20:33:41;;;;;;;4.28;3.22;;;;;;;9.98;80.47;93955.19;6265244;22;20146;-80
2023/11/02 20:36:40;;;;;;;4.00;3.47;;;;;;;10.00;83.37;93937.50;6268869;23;20039;-80
2023/11/02 20:42:47;;;;;;;4.97;4.30;;;;;;;10.03;82.53;93983.88;6240799;23;20031;-80
2023/11/02 20:45:21;;;;;;;3.55;3.25;;;;;;;10.02;82.68;93980.50;6240565;23;20020;-80
2023/11/02 20:47:55;;;;;;;4.22;3.75;;;;;;;10.05;83.28;93992.25;6239652;23;20044;-79
2023/11/02 20:50:29;;;;;;;4.15;3.80;;;;;;;10.04;83.07;93988.09;6214266;23;20069;-80
2023/11/02 20:53:01;;;;;;;3.95;3.55;;;;;;;10.05;83.23;94005.28;6238302;23;20040;-80
2023/11/02 20:58:49;;;;;;;4.20;3.80;;;;;;;10.07;82.70;94016.25;6227330;23;20094;-81
2023/11/02 21:01:17;;;;;;;5.28;4.78;;;;;;;10.05;82.50;94013.09;6226040;23;20020;-80
2023/11/02 21:03:46;;;;;;;4.60;4.20;;;;;;;10.05;82.83;94020.91;6226099;23;20021;-80
2023/11/02 21:06:21;;;;;;;4.88;4.35;;;;;;;10.07;82.88;94013.63;6228105;23;20024;-79
2023/11/02 21:08:51;;;;;;;3.80;3.50;;;;;;;10.07;81.11;93977.16;6228576;23;20017;-80
2023/11/02 21:11:22;;;;;;;3.92;3.53;;;;;;;10.08;81.28;93969.13;6230440;23;20618;-79
2023/11/02 21:14:13;;;;;;;4.20;3.78;;;;;;;10.09;81.37;93952.44;6233782;23;20020;-82
2023/11/02 21:17:02;;;;;;;4.50;3.88;;;;;;;10.10;81.26;93953.22;6215448;23;20021;-82
2023/11/02 21:19:50;;;;;;;4.75;3.45;;;;;;;10.10;81.02;93951.44;6238211;23;20027;-83
2023/11/02 21:22:24;;;;;;;3.45;3.15;;;;;;;10.12;80.68;93938.16;6207675;23;20028;-82
2023/11/02 21:24:54;;;;;;;4.13;3.72;;;;;;;10.11;81.43;93934.75;6231907;23;20016;-82
2023/11/02 21:30:18;;;;;;;3.65;2.78;;;;;;;10.12;80.67;93982.44;6214800;23;20016;-82
2023/11/02 21:32:49;;;;;;;4.25;2.88;;;;;;;10.10;80.59;93976.69;6266945;22;20029;-82
2023/11/02 21:35:19;;;;;;;3.30;2.97;;;;;;;10.05;80.16;93984.44;6331778;22;20094;-81
2023/11/02 21:37:52;;;;;;;18.48;9.63;;;;;;;10.02;80.17;93985.72;6327107;22;20071;-81
2023/11/02 21:40:21;;;;;;;;;;;;;;;10.02;80.39;93977.91;6329905;22;20043;-82
2023/11/02 21:42:51;;;;;;;5.72;4.38;;;;;;;9.92;78.71;93969.19;6327873;22;19921;-81
2023/11/02 21:45:21;;;;;;;5.03;4.22;;;;;;;9.82;77.80;93968.03;6327154;22;20019;-81